Terminal Aerodrome Forecast
Issued by NWS

Home | Current Version | Previous Version | Text Only | Print | Product List | Glossary On
Versions: 1 2 3 4 5 6 7 8 9 10 11 12 13
000
FTUS45 KTFX 271100
TAFLWT
TAF
KLWT 271136Z 2712/2812 09006KT P6SM BKN180
     FM271800 33006KT P6SM BKN120
     FM272100 34006KT P6SM SCT030 OVC050
     FM280000 36006KT 1SM -SN BR OVC025
     FM280600 VRB06KT 1SM -SN BR OVC010=

USA.gov is the U.S. government's official web portal to all federal, state and local government web resources and services.